foto1
foto1
foto1
foto1
foto1


Bienvenue sur le site de l'Aéroclub Dassault Breguet Biarritz

Actualités:

METAR LFBZ

LFBZ 172200Z AUTO 03003KT CAVOK 21/17 Q1017 NOSIG

TAF LFBZ

TAF LFBZ 171700Z 1718/1818 01010KT 9999 SCT040 BECMG 1723/1801 07008KT PROB30 TEMPO 1810/1818 SHRA SCT050TCU

Accès Membres

Réserver un avion

Pour réserver un avion cliquer sur le logo Openflyers

logo openflyers

Flux RSS

Aerobuzz

Actualité et information aéronautique